Ouro Preto, Brazil
Current Conditions -  °F | °C
As of 6:07 AM on Wednesday 26 Nov 2014 (Local Time) from SBPR Reporting Station
Overcast Overcast  
Wind Chill: 70°   Ceiling: 1200
Heat Index: 70°   Visibility: 6mi
Dew Point: 66°   Wind: 9mph
Humidity: 88%   Direction: 70°ENE
Pressure: 29.97"   Gusts: NA
Location:  20.29°S, 43.51°W
Report Text: SBPR 260807Z 07008KT 9999 SCT008 BKN012 OVC080 21/19 Q1015
Loading
Personal Weather Stations






























Interactive Weather Map New forecast layout! Learn more

10-Day Weather Forecast

Advertisements
Track Severe Weather on mobile